sensor_id;sensor_type;location;lat;lon;timestamp;pressure;altitude;pressure_sealevel;temperature;humidity
69916;BME280;57203;42.672;23.334;2022-12-07T00:02:49;944.5;;;5.1;84.8
69916;BME280;57203;42.672;23.334;2022-12-07T00:04:49;944.5;;;5.2;84.5
69916;BME280;57203;42.672;23.334;2022-12-07T00:05:49;944.5;;;5.3;84.4
69916;BME280;57203;42.672;23.334;2022-12-07T00:08:49;944.5;;;5.2;83.6
69916;BME280;57203;42.672;23.334;2022-12-07T00:14:49;944.4;;;5.1;84.0
69916;BME280;57203;42.672;23.334;2022-12-07T00:17:49;944.4;;;5.2;84.2
69916;BME280;57203;42.672;23.334;2022-12-07T00:18:49;944.4;;;5.1;84.2
69916;BME280;57203;42.672;23.334;2022-12-07T00:19:49;944.4;;;5.2;84.0
69916;BME280;57203;42.672;23.334;2022-12-07T00:21:49;944.4;;;5.3;83.9
69916;BME280;57203;42.672;23.334;2022-12-07T00:23:49;944.4;;;5.2;83.7
69916;BME280;57203;42.672;23.334;2022-12-07T00:25:49;944.3;;;5.3;83.9
69916;BME280;57203;42.672;23.334;2022-12-07T00:26:49;944.3;;;5.2;84.0
69916;BME280;57203;42.672;23.334;2022-12-07T00:27:49;944.4;;;5.1;83.8
69916;BME280;57203;42.672;23.334;2022-12-07T00:28:50;944.4;;;5.0;84.0
69916;BME280;57203;42.672;23.334;2022-12-07T00:30:49;944.5;;;4.9;84.5
69916;BME280;57203;42.672;23.334;2022-12-07T00:33:49;944.4;;;5.0;84.8
69916;BME280;57203;42.672;23.334;2022-12-07T00:35:54;944.4;;;4.9;84.8
69916;BME280;57203;42.672;23.334;2022-12-07T00:36:49;944.4;;;4.8;84.8
69916;BME280;57203;42.672;23.334;2022-12-07T00:42:49;944.5;;;4.9;85.2
69916;BME280;57203;42.672;23.334;2022-12-07T00:45:49;944.4;;;5.0;85.2
69916;BME280;57203;42.672;23.334;2022-12-07T00:46:49;944.4;;;5.1;85.2
69916;BME280;57203;42.672;23.334;2022-12-07T00:49:49;944.4;;;5.0;84.6
69916;BME280;57203;42.672;23.334;2022-12-07T00:55:49;944.3;;;4.9;85.0
69916;BME280;57203;42.672;23.334;2022-12-07T00:56:49;944.3;;;4.8;85.0
69916;BME280;57203;42.672;23.334;2022-12-07T00:59:49;944.3;;;4.9;85.3
69916;BME280;57203;42.672;23.334;2022-12-07T01:01:49;944.3;;;5.0;85.4
69916;BME280;57203;42.672;23.334;2022-12-07T01:06:49;944.3;;;4.9;84.9
69916;BME280;57203;42.672;23.334;2022-12-07T01:11:49;944.3;;;5.1;84.9
69916;BME280;57203;42.672;23.334;2022-12-07T01:12:49;944.3;;;5.2;84.9
69916;BME280;57203;42.672;23.334;2022-12-07T01:13:49;944.3;;;5.3;84.4
69916;BME280;57203;42.672;23.334;2022-12-07T01:15:49;944.3;;;5.2;83.4
69916;BME280;57203;42.672;23.334;2022-12-07T01:16:49;944.3;;;5.1;83.8
69916;BME280;57203;42.672;23.334;2022-12-07T01:17:49;944.3;;;5.2;84.0
69916;BME280;57203;42.672;23.334;2022-12-07T01:20:56;944.3;;;5.3;83.9
69916;BME280;57203;42.672;23.334;2022-12-07T01:23:49;944.2;;;5.2;83.4
69916;BME280;57203;42.672;23.334;2022-12-07T01:24:49;944.2;;;5.1;83.6
69916;BME280;57203;42.672;23.334;2022-12-07T01:25:53;944.2;;;5.2;83.7
69916;BME280;57203;42.672;23.334;2022-12-07T01:27:49;944.2;;;5.1;83.9
69916;BME280;57203;42.672;23.334;2022-12-07T01:28:49;944.2;;;5.0;84.0
69916;BME280;57203;42.672;23.334;2022-12-07T01:30:54;944.2;;;5.1;84.4
69916;BME280;57203;42.672;23.334;2022-12-07T01:32:49;944.2;;;5.0;84.5
69916;BME280;57203;42.672;23.334;2022-12-07T01:37:49;944.1;;;4.9;85.0
69916;BME280;57203;42.672;23.334;2022-12-07T01:39:49;944.1;;;4.8;85.3
69916;BME280;57203;42.672;23.334;2022-12-07T01:40:53;944.1;;;4.7;85.4
69916;BME280;57203;42.672;23.334;2022-12-07T01:42:49;944.1;;;4.6;85.8
69916;BME280;57203;42.672;23.334;2022-12-07T01:46:49;944.1;;;4.6;86.4
69916;BME280;57203;42.672;23.334;2022-12-07T01:48:49;944.2;;;4.5;86.4
69916;BME280;57203;42.672;23.334;2022-12-07T01:52:49;944.1;;;4.6;86.5
69916;BME280;57203;42.672;23.334;2022-12-07T01:59:49;944.0;;;4.8;86.3
69916;BME280;57203;42.672;23.334;2022-12-07T02:00:49;944.0;;;4.9;86.4
69916;BME280;57203;42.672;23.334;2022-12-07T02:01:49;944.0;;;5.0;86.1
69916;BME280;57203;42.672;23.334;2022-12-07T02:03:49;943.9;;;5.1;85.5
69916;BME280;57203;42.672;23.334;2022-12-07T02:04:49;943.9;;;5.0;85.2
69916;BME280;57203;42.672;23.334;2022-12-07T02:05:49;943.9;;;4.9;85.0
69916;BME280;57203;42.672;23.334;2022-12-07T02:07:49;943.9;;;4.8;85.3
69916;BME280;57203;42.672;23.334;2022-12-07T02:09:49;943.9;;;4.7;85.5
69916;BME280;57203;42.672;23.334;2022-12-07T02:13:49;944.0;;;4.6;85.8
69916;BME280;57203;42.672;23.334;2022-12-07T02:16:53;944.0;;;4.7;85.8
69916;BME280;57203;42.672;23.334;2022-12-07T02:19:58;944.0;;;4.8;85.5
69916;BME280;57203;42.672;23.334;2022-12-07T02:20:50;944.0;;;4.9;85.5
69916;BME280;57203;42.672;23.334;2022-12-07T02:21:50;944.0;;;4.8;85.3
69916;BME280;57203;42.672;23.334;2022-12-07T02:29:50;943.9;;;4.8;85.3
69916;BME280;57203;42.672;23.334;2022-12-07T02:30:49;943.9;;;4.9;85.3
69916;BME280;57203;42.672;23.334;2022-12-07T02:36:51;943.8;;;4.8;85.2
69916;BME280;57203;42.672;23.334;2022-12-07T02:38:50;943.8;;;4.7;85.3
69916;BME280;57203;42.672;23.334;2022-12-07T02:39:50;943.8;;;4.9;85.2
69916;BME280;57203;42.672;23.334;2022-12-07T02:40:50;943.8;;;5.0;85.3
69916;BME280;57203;42.672;23.334;2022-12-07T02:41:50;943.8;;;4.9;85.0
69916;BME280;57203;42.672;23.334;2022-12-07T02:42:49;943.8;;;4.8;84.6
69916;BME280;57203;42.672;23.334;2022-12-07T02:43:50;943.8;;;4.7;84.7
69916;BME280;57203;42.672;23.334;2022-12-07T02:45:49;943.9;;;4.6;85.4
69916;BME280;57203;42.672;23.334;2022-12-07T02:47:50;943.9;;;4.5;85.8
69916;BME280;57203;42.672;23.334;2022-12-07T02:48:48;943.9;;;4.6;86.0
69916;BME280;57203;42.672;23.334;2022-12-07T02:49:49;943.9;;;4.5;85.9
69916;BME280;57203;42.672;23.334;2022-12-07T02:51:49;943.9;;;4.4;86.0
69916;BME280;57203;42.672;23.334;2022-12-07T02:54:48;943.8;;;4.3;86.5
69916;BME280;57203;42.672;23.334;2022-12-07T02:55:49;943.8;;;4.5;86.6
69916;BME280;57203;42.672;23.334;2022-12-07T03:00:52;943.8;;;4.6;86.3
69916;BME280;57203;42.672;23.334;2022-12-07T03:04:52;943.7;;;4.5;85.8
69916;BME280;57203;42.672;23.334;2022-12-07T03:05:52;943.7;;;4.4;85.9
69916;BME280;57203;42.672;23.334;2022-12-07T03:07:50;943.7;;;4.3;86.1
69916;BME280;57203;42.672;23.334;2022-12-07T03:10:50;943.7;;;4.2;86.3
69916;BME280;57203;42.672;23.334;2022-12-07T03:11:49;943.6;;;4.1;86.5
69916;BME280;57203;42.672;23.334;2022-12-07T03:12:55;943.6;;;4.2;86.7
69916;BME280;57203;42.672;23.334;2022-12-07T03:19:49;943.6;;;4.1;86.7
69916;BME280;57203;42.672;23.334;2022-12-07T03:20:49;943.6;;;4.2;86.9
69916;BME280;57203;42.672;23.334;2022-12-07T03:24:49;943.6;;;4.0;86.9
69916;BME280;57203;42.672;23.334;2022-12-07T03:32:49;943.6;;;4.1;87.7
69916;BME280;57203;42.672;23.334;2022-12-07T03:33:49;943.6;;;4.3;87.6
69916;BME280;57203;42.672;23.334;2022-12-07T03:34:49;943.6;;;4.4;87.5
69916;BME280;57203;42.672;23.334;2022-12-07T03:35:50;943.6;;;4.3;87.3
69916;BME280;57203;42.672;23.334;2022-12-07T03:36:50;943.7;;;4.2;87.0
69916;BME280;57203;42.672;23.334;2022-12-07T03:37:50;943.7;;;4.3;87.0
69916;BME280;57203;42.672;23.334;2022-12-07T03:38:50;943.7;;;4.2;87.1
69916;BME280;57203;42.672;23.334;2022-12-07T03:42:49;943.6;;;4.3;87.3
69916;BME280;57203;42.672;23.334;2022-12-07T03:43:49;943.6;;;4.4;87.4
69916;BME280;57203;42.672;23.334;2022-12-07T03:44:49;943.6;;;4.3;87.2
69916;BME280;57203;42.672;23.334;2022-12-07T03:46:50;943.6;;;4.4;87.0
69916;BME280;57203;42.672;23.334;2022-12-07T03:47:50;943.6;;;4.5;87.0
69916;BME280;57203;42.672;23.334;2022-12-07T03:48:51;943.6;;;4.4;86.9
69916;BME280;57203;42.672;23.334;2022-12-07T03:50:50;943.6;;;4.3;86.5
69916;BME280;57203;42.672;23.334;2022-12-07T03:52:51;943.6;;;4.4;86.7
69916;BME280;57203;42.672;23.334;2022-12-07T03:54:51;943.6;;;4.5;86.6
69916;BME280;57203;42.672;23.334;2022-12-07T03:55:49;943.6;;;4.6;86.5
69916;BME280;57203;42.672;23.334;2022-12-07T04:01:51;943.5;;;4.5;85.6
69916;BME280;57203;42.672;23.334;2022-12-07T04:05:49;943.5;;;4.6;86.1
69916;BME280;57203;42.672;23.334;2022-12-07T04:07:49;943.5;;;4.7;85.9
69916;BME280;57203;42.672;23.334;2022-12-07T04:08:49;943.5;;;4.6;85.7
69916;BME280;57203;42.672;23.334;2022-12-07T04:10:49;943.5;;;4.5;85.9
69916;BME280;57203;42.672;23.334;2022-12-07T04:11:49;943.5;;;4.4;86.0
69916;BME280;57203;42.672;23.334;2022-12-07T04:12:49;943.5;;;4.3;86.2
69916;BME280;57203;42.672;23.334;2022-12-07T04:14:49;943.5;;;4.2;86.8
69916;BME280;57203;42.672;23.334;2022-12-07T04:18:49;943.5;;;4.1;87.1
69916;BME280;57203;42.672;23.334;2022-12-07T04:22:49;943.4;;;4.2;87.4
69916;BME280;57203;42.672;23.334;2022-12-07T04:24:49;943.5;;;4.1;87.2
69916;BME280;57203;42.672;23.334;2022-12-07T04:27:49;943.5;;;4.2;87.4
69916;BME280;57203;42.672;23.334;2022-12-07T04:28:49;943.5;;;4.3;87.4
69916;BME280;57203;42.672;23.334;2022-12-07T04:31:49;943.5;;;4.2;86.8
69916;BME280;57203;42.672;23.334;2022-12-07T04:33:49;943.5;;;4.1;87.0
69916;BME280;57203;42.672;23.334;2022-12-07T04:35:49;943.5;;;4.2;87.3
69916;BME280;57203;42.672;23.334;2022-12-07T04:38:49;943.5;;;4.3;86.9
69916;BME280;57203;42.672;23.334;2022-12-07T04:39:49;943.5;;;4.2;86.8
69916;BME280;57203;42.672;23.334;2022-12-07T04:41:49;943.5;;;4.1;86.8
69916;BME280;57203;42.672;23.334;2022-12-07T04:43:49;943.5;;;4.0;87.2
69916;BME280;57203;42.672;23.334;2022-12-07T04:45:49;943.5;;;3.9;87.5
69916;BME280;57203;42.672;23.334;2022-12-07T04:48:49;943.6;;;4.0;87.9
69916;BME280;57203;42.672;23.334;2022-12-07T04:50:49;943.6;;;3.9;87.8
69916;BME280;57203;42.672;23.334;2022-12-07T04:53:49;943.7;;;3.8;87.8
69916;BME280;57203;42.672;23.334;2022-12-07T04:55:49;943.6;;;3.7;88.0
69916;BME280;57203;42.672;23.334;2022-12-07T04:56:49;943.6;;;3.8;88.2
69916;BME280;57203;42.672;23.334;2022-12-07T04:57:49;943.6;;;3.9;88.1
69916;BME280;57203;42.672;23.334;2022-12-07T04:58:49;943.6;;;3.8;88.0
69916;BME280;57203;42.672;23.334;2022-12-07T04:59:49;943.6;;;3.7;87.9
69916;BME280;57203;42.672;23.334;2022-12-07T05:01:49;943.6;;;3.6;88.0
69916;BME280;57203;42.672;23.334;2022-12-07T05:05:49;943.6;;;3.5;88.6
69916;BME280;57203;42.672;23.334;2022-12-07T05:12:49;943.6;;;3.6;88.9
69916;BME280;57203;42.672;23.334;2022-12-07T05:14:49;943.6;;;3.8;88.9
69916;BME280;57203;42.672;23.334;2022-12-07T05:15:49;943.6;;;3.9;88.8
69916;BME280;57203;42.672;23.334;2022-12-07T05:16:49;943.6;;;3.8;88.6
69916;BME280;57203;42.672;23.334;2022-12-07T05:19:49;943.6;;;3.7;88.5
69916;BME280;57203;42.672;23.334;2022-12-07T05:20:49;943.6;;;3.8;88.5
69916;BME280;57203;42.672;23.334;2022-12-07T05:21:49;943.6;;;3.9;88.5
69916;BME280;57203;42.672;23.334;2022-12-07T05:22:49;943.6;;;4.0;88.6
69916;BME280;57203;42.672;23.334;2022-12-07T05:25:49;943.6;;;4.1;88.4
69916;BME280;57203;42.672;23.334;2022-12-07T05:27:49;943.6;;;4.2;88.1
69916;BME280;57203;42.672;23.334;2022-12-07T05:29:49;943.6;;;4.0;87.8
69916;BME280;57203;42.672;23.334;2022-12-07T05:30:49;943.6;;;3.9;87.6
69916;BME280;57203;42.672;23.334;2022-12-07T05:32:49;943.6;;;4.0;87.9
69916;BME280;57203;42.672;23.334;2022-12-07T05:33:49;943.6;;;4.1;88.0
69916;BME280;57203;42.672;23.334;2022-12-07T05:34:49;943.6;;;4.2;88.0
69916;BME280;57203;42.672;23.334;2022-12-07T05:35:49;943.6;;;4.1;87.8
69916;BME280;57203;42.672;23.334;2022-12-07T05:39:49;943.6;;;4.2;87.5
69916;BME280;57203;42.672;23.334;2022-12-07T05:40:49;943.6;;;4.1;87.5
69916;BME280;57203;42.672;23.334;2022-12-07T05:42:49;943.6;;;4.0;87.4
69916;BME280;57203;42.672;23.334;2022-12-07T05:43:49;943.6;;;4.1;87.5
69916;BME280;57203;42.672;23.334;2022-12-07T05:45:49;943.6;;;4.0;87.5
69916;BME280;57203;42.672;23.334;2022-12-07T05:46:49;943.5;;;3.9;87.4
69916;BME280;57203;42.672;23.334;2022-12-07T05:50:49;943.5;;;4.0;87.9
69916;BME280;57203;42.672;23.334;2022-12-07T05:52:49;943.5;;;4.1;87.9
69916;BME280;57203;42.672;23.334;2022-12-07T05:56:49;943.5;;;4.0;87.7
69916;BME280;57203;42.672;23.334;2022-12-07T06:03:49;943.5;;;3.9;87.9
69916;BME280;57203;42.672;23.334;2022-12-07T06:04:49;943.5;;;3.8;88.0
69916;BME280;57203;42.672;23.334;2022-12-07T06:06:49;943.5;;;3.9;88.3
69916;BME280;57203;42.672;23.334;2022-12-07T06:08:49;943.5;;;4.0;88.2
69916;BME280;57203;42.672;23.334;2022-12-07T06:15:49;943.5;;;4.1;88.0
69916;BME280;57203;42.672;23.334;2022-12-07T06:19:49;943.5;;;4.0;87.9
69916;BME280;57203;42.672;23.334;2022-12-07T06:21:49;943.6;;;4.1;88.0
69916;BME280;57203;42.672;23.334;2022-12-07T06:23:49;943.6;;;4.0;87.9
69916;BME280;57203;42.672;23.334;2022-12-07T06:24:49;943.6;;;4.1;87.9
69916;BME280;57203;42.672;23.334;2022-12-07T06:25:49;943.6;;;4.0;88.0
69916;BME280;57203;42.672;23.334;2022-12-07T06:27:49;943.6;;;4.1;88.0
69916;BME280;57203;42.672;23.334;2022-12-07T06:31:49;943.6;;;4.2;88.0
69916;BME280;57203;42.672;23.334;2022-12-07T06:32:49;943.6;;;4.3;88.1
69916;BME280;57203;42.672;23.334;2022-12-07T06:33:49;943.6;;;4.2;88.0
69916;BME280;57203;42.672;23.334;2022-12-07T06:36:49;943.7;;;4.3;87.8
69916;BME280;57203;42.672;23.334;2022-12-07T06:37:49;943.7;;;4.4;87.8
69916;BME280;57203;42.672;23.334;2022-12-07T06:38:49;943.7;;;4.5;87.8
69916;BME280;57203;42.672;23.334;2022-12-07T06:39:49;943.7;;;4.6;87.6
69916;BME280;57203;42.672;23.334;2022-12-07T06:41:49;943.7;;;4.7;87.2
69916;BME280;57203;42.672;23.334;2022-12-07T06:43:49;943.7;;;4.8;87.0
69916;BME280;57203;42.672;23.334;2022-12-07T06:44:49;943.7;;;4.7;86.9
69916;BME280;57203;42.672;23.334;2022-12-07T06:48:49;943.8;;;4.6;86.5
69916;BME280;57203;42.672;23.334;2022-12-07T06:49:49;943.8;;;4.7;86.6
69916;BME280;57203;42.672;23.334;2022-12-07T06:50:49;943.8;;;4.8;86.5
69916;BME280;57203;42.672;23.334;2022-12-07T06:51:49;943.8;;;4.9;86.3
69916;BME280;57203;42.672;23.334;2022-12-07T06:55:49;943.8;;;4.8;85.8
69916;BME280;57203;42.672;23.334;2022-12-07T06:56:49;943.8;;;4.9;85.9
69916;BME280;57203;42.672;23.334;2022-12-07T06:57:49;943.8;;;4.8;86.0
69916;BME280;57203;42.672;23.334;2022-12-07T07:01:49;943.8;;;4.9;86.0
69916;BME280;57203;42.672;23.334;2022-12-07T07:02:49;943.8;;;5.0;85.7
69916;BME280;57203;42.672;23.334;2022-12-07T07:09:49;943.8;;;4.9;84.9
69916;BME280;57203;42.672;23.334;2022-12-07T07:12:49;943.8;;;4.8;85.4
69916;BME280;57203;42.672;23.334;2022-12-07T07:13:49;943.8;;;4.7;85.7
69916;BME280;57203;42.672;23.334;2022-12-07T07:14:49;943.8;;;4.8;86.0
69916;BME280;57203;42.672;23.334;2022-12-07T07:15:49;943.8;;;4.7;86.1
69916;BME280;57203;42.672;23.334;2022-12-07T07:16:49;943.8;;;4.6;86.0
69916;BME280;57203;42.672;23.334;2022-12-07T07:20:49;943.8;;;4.7;86.6
69916;BME280;57203;42.672;23.334;2022-12-07T07:22:49;943.8;;;4.8;86.4
69916;BME280;57203;42.672;23.334;2022-12-07T07:24:49;943.8;;;5.0;86.2
69916;BME280;57203;42.672;23.334;2022-12-07T07:25:49;943.8;;;5.1;86.0
69916;BME280;57203;42.672;23.334;2022-12-07T07:27:49;943.8;;;5.2;85.1
69916;BME280;57203;42.672;23.334;2022-12-07T07:30:49;943.8;;;5.3;84.9
69916;BME280;57203;42.672;23.334;2022-12-07T07:33:49;943.8;;;5.2;84.3
69916;BME280;57203;42.672;23.334;2022-12-07T07:34:49;943.9;;;5.1;84.3
69916;BME280;57203;42.672;23.334;2022-12-07T07:35:49;943.9;;;5.2;84.6
69916;BME280;57203;42.672;23.334;2022-12-07T07:36:49;943.9;;;5.1;84.9
69916;BME280;57203;42.672;23.334;2022-12-07T07:40:49;943.9;;;5.2;84.7
69916;BME280;57203;42.672;23.334;2022-12-07T07:43:49;943.9;;;5.3;84.4
69916;BME280;57203;42.672;23.334;2022-12-07T07:44:49;943.9;;;5.4;84.4
69916;BME280;57203;42.672;23.334;2022-12-07T07:45:49;943.9;;;5.6;83.2
69916;BME280;57203;42.672;23.334;2022-12-07T07:47:49;943.9;;;5.7;83.0
69916;BME280;57203;42.672;23.334;2022-12-07T07:50:49;943.9;;;5.8;82.6
69916;BME280;57203;42.672;23.334;2022-12-07T07:52:49;943.8;;;5.9;82.5
69916;BME280;57203;42.672;23.334;2022-12-07T07:55:51;943.9;;;6.0;82.0
69916;BME280;57203;42.672;23.334;2022-12-07T07:56:49;943.9;;;5.9;81.7
69916;BME280;57203;42.672;23.334;2022-12-07T07:59:49;943.9;;;5.8;82.0
69916;BME280;57203;42.672;23.334;2022-12-07T08:00:49;943.9;;;5.9;82.0
69916;BME280;57203;42.672;23.334;2022-12-07T08:04:49;943.8;;;5.8;81.6
69916;BME280;57203;42.672;23.334;2022-12-07T08:08:49;943.9;;;5.9;82.2
69916;BME280;57203;42.672;23.334;2022-12-07T08:09:49;943.9;;;5.8;81.8
69916;BME280;57203;42.672;23.334;2022-12-07T08:11:49;943.9;;;5.9;81.8
69916;BME280;57203;42.672;23.334;2022-12-07T08:13:49;943.9;;;6.0;81.8
69916;BME280;57203;42.672;23.334;2022-12-07T08:14:49;943.9;;;5.9;81.6
69916;BME280;57203;42.672;23.334;2022-12-07T08:18:49;943.9;;;5.8;81.6
69916;BME280;57203;42.672;23.334;2022-12-07T08:19:49;943.9;;;5.9;81.7
69916;BME280;57203;42.672;23.334;2022-12-07T08:24:49;943.8;;;6.0;81.6
69916;BME280;57203;42.672;23.334;2022-12-07T08:26:49;943.8;;;5.9;81.6
69916;BME280;57203;42.672;23.334;2022-12-07T08:28:49;943.8;;;5.8;81.8
69916;BME280;57203;42.672;23.334;2022-12-07T08:29:49;943.8;;;5.7;82.1
69916;BME280;57203;42.672;23.334;2022-12-07T08:31:49;943.8;;;5.8;82.4
69916;BME280;57203;42.672;23.334;2022-12-07T08:34:49;943.8;;;5.9;82.2
69916;BME280;57203;42.672;23.334;2022-12-07T08:43:50;943.9;;;5.8;81.7
69916;BME280;57203;42.672;23.334;2022-12-07T08:45:49;943.8;;;5.9;82.0
69916;BME280;57203;42.672;23.334;2022-12-07T08:49:49;943.8;;;6.0;81.7
69916;BME280;57203;42.672;23.334;2022-12-07T08:52:49;943.7;;;5.9;81.6
69916;BME280;57203;42.672;23.334;2022-12-07T08:54:49;943.7;;;6.0;81.9
69916;BME280;57203;42.672;23.334;2022-12-07T08:55:49;943.7;;;6.1;81.9
69916;BME280;57203;42.672;23.334;2022-12-07T08:57:49;943.7;;;6.2;81.5
69916;BME280;57203;42.672;23.334;2022-12-07T08:58:49;943.7;;;6.1;81.2
69916;BME280;57203;42.672;23.334;2022-12-07T08:59:49;943.7;;;6.2;81.0
69916;BME280;57203;42.672;23.334;2022-12-07T09:00:49;943.7;;;6.1;81.1
69916;BME280;57203;42.672;23.334;2022-12-07T09:03:49;943.7;;;6.0;81.2
69916;BME280;57203;42.672;23.334;2022-12-07T09:06:49;943.6;;;6.1;81.4
69916;BME280;57203;42.672;23.334;2022-12-07T09:07:49;943.6;;;6.2;81.4
69916;BME280;57203;42.672;23.334;2022-12-07T09:10:49;943.6;;;6.4;81.1
69916;BME280;57203;42.672;23.334;2022-12-07T09:11:49;943.6;;;6.5;81.0
69916;BME280;57203;42.672;23.334;2022-12-07T09:12:49;943.6;;;6.6;80.6
69916;BME280;57203;42.672;23.334;2022-12-07T09:13:49;943.6;;;6.7;80.3
69916;BME280;57203;42.672;23.334;2022-12-07T09:14:49;943.6;;;6.8;80.0
69916;BME280;57203;42.672;23.334;2022-12-07T09:16:49;943.6;;;6.9;79.7
69916;BME280;57203;42.672;23.334;2022-12-07T09:17:49;943.6;;;7.0;79.7
69916;BME280;57203;42.672;23.334;2022-12-07T09:19:49;943.5;;;7.1;79.3
69916;BME280;57203;42.672;23.334;2022-12-07T09:22:49;943.5;;;7.2;78.5
69916;BME280;57203;42.672;23.334;2022-12-07T09:23:49;943.4;;;7.3;78.7
69916;BME280;57203;42.672;23.334;2022-12-07T09:26:49;943.4;;;7.1;78.3
69916;BME280;57203;42.672;23.334;2022-12-07T09:27:54;943.5;;;7.0;78.5
69916;BME280;57203;42.672;23.334;2022-12-07T09:28:49;943.5;;;6.8;79.2
69916;BME280;57203;42.672;23.334;2022-12-07T09:29:49;943.5;;;6.7;79.4
69916;BME280;57203;42.672;23.334;2022-12-07T09:31:49;943.5;;;6.8;79.9
69916;BME280;57203;42.672;23.334;2022-12-07T09:33:52;943.5;;;6.9;79.6
69916;BME280;57203;42.672;23.334;2022-12-07T09:35:50;943.4;;;7.1;79.4
69916;BME280;57203;42.672;23.334;2022-12-07T09:37:49;943.3;;;7.2;78.6
69916;BME280;57203;42.672;23.334;2022-12-07T09:38:49;943.3;;;7.3;78.9
69916;BME280;57203;42.672;23.334;2022-12-07T09:39:49;943.3;;;7.4;78.2
69916;BME280;57203;42.672;23.334;2022-12-07T09:40:49;943.3;;;7.5;78.2
69916;BME280;57203;42.672;23.334;2022-12-07T09:42:49;943.2;;;7.4;77.5
69916;BME280;57203;42.672;23.334;2022-12-07T09:45:49;943.3;;;7.3;77.8
69916;BME280;57203;42.672;23.334;2022-12-07T09:47:49;943.3;;;7.5;78.2
69916;BME280;57203;42.672;23.334;2022-12-07T09:48:49;943.2;;;7.6;77.9
69916;BME280;57203;42.672;23.334;2022-12-07T09:49:49;943.2;;;7.7;77.5
69916;BME280;57203;42.672;23.334;2022-12-07T09:52:49;943.2;;;7.6;76.7
69916;BME280;57203;42.672;23.334;2022-12-07T09:55:49;943.2;;;7.5;77.1
69916;BME280;57203;42.672;23.334;2022-12-07T09:56:49;943.2;;;7.6;77.2
69916;BME280;57203;42.672;23.334;2022-12-07T09:57:49;943.2;;;7.5;77.2
69916;BME280;57203;42.672;23.334;2022-12-07T09:59:49;943.2;;;7.6;77.2
69916;BME280;57203;42.672;23.334;2022-12-07T10:01:49;943.1;;;7.8;77.0
69916;BME280;57203;42.672;23.334;2022-12-07T10:02:50;943.1;;;8.0;77.0
69916;BME280;57203;42.672;23.334;2022-12-07T10:03:49;943.1;;;8.2;76.4
69916;BME280;57203;42.672;23.334;2022-12-07T10:04:49;943.1;;;8.4;75.9
69916;BME280;57203;42.672;23.334;2022-12-07T10:05:50;943.1;;;8.5;75.3
69916;BME280;57203;42.672;23.334;2022-12-07T10:06:49;943.1;;;8.4;74.5
69916;BME280;57203;42.672;23.334;2022-12-07T10:07:49;943.1;;;8.3;74.9
69916;BME280;57203;42.672;23.334;2022-12-07T10:08:49;943.1;;;8.4;75.3
69916;BME280;57203;42.672;23.334;2022-12-07T10:10:50;943.1;;;8.2;74.9
69916;BME280;57203;42.672;23.334;2022-12-07T10:12:53;943.0;;;8.0;76.1
69916;BME280;57203;42.672;23.334;2022-12-07T10:15:50;943.0;;;8.1;75.6
69916;BME280;57203;42.672;23.334;2022-12-07T10:16:49;943.0;;;8.2;75.4
69916;BME280;57203;42.672;23.334;2022-12-07T10:17:50;942.9;;;8.3;75.3
69916;BME280;57203;42.672;23.334;2022-12-07T10:22:58;942.9;;;8.5;74.6
69916;BME280;57203;42.672;23.334;2022-12-07T10:25:49;942.9;;;8.5;74.6
69916;BME280;57203;42.672;23.334;2022-12-07T10:26:50;942.9;;;8.6;74.0
69916;BME280;57203;42.672;23.334;2022-12-07T10:27:57;942.9;;;8.8;73.4
69916;BME280;57203;42.672;23.334;2022-12-07T10:28:49;942.9;;;9.0;73.0
69916;BME280;57203;42.672;23.334;2022-12-07T10:29:50;942.8;;;9.1;72.6
69916;BME280;57203;42.672;23.334;2022-12-07T10:30:50;942.8;;;9.2;71.9
69916;BME280;57203;42.672;23.334;2022-12-07T10:31:50;942.8;;;9.3;71.5
69916;BME280;57203;42.672;23.334;2022-12-07T10:32:49;942.7;;;9.4;71.6
69916;BME280;57203;42.672;23.334;2022-12-07T10:33:50;942.7;;;9.5;71.3
69916;BME280;57203;42.672;23.334;2022-12-07T10:34:49;942.6;;;9.3;70.8
69916;BME280;57203;42.672;23.334;2022-12-07T10:35:49;942.6;;;9.2;71.1
69916;BME280;57203;42.672;23.334;2022-12-07T10:36:49;942.6;;;9.3;72.2
69916;BME280;57203;42.672;23.334;2022-12-07T10:39:49;942.6;;;9.4;70.8
69916;BME280;57203;42.672;23.334;2022-12-07T10:41:53;942.6;;;9.3;70.5
69916;BME280;57203;42.672;23.334;2022-12-07T10:43:50;942.6;;;9.2;71.3
69916;BME280;57203;42.672;23.334;2022-12-07T10:44:50;942.6;;;8.9;72.0
69916;BME280;57203;42.672;23.334;2022-12-07T10:47:50;942.5;;;9.0;72.7
69916;BME280;57203;42.672;23.334;2022-12-07T10:48:50;942.5;;;9.2;72.3
69916;BME280;57203;42.672;23.334;2022-12-07T10:49:55;942.5;;;8.9;71.6
69916;BME280;57203;42.672;23.334;2022-12-07T10:51:50;942.5;;;8.7;72.9
69916;BME280;57203;42.672;23.334;2022-12-07T10:52:54;942.5;;;8.5;73.0
69916;BME280;57203;42.672;23.334;2022-12-07T10:53:51;942.5;;;8.6;73.4
69916;BME280;57203;42.672;23.334;2022-12-07T10:54:51;942.5;;;8.8;73.8
69916;BME280;57203;42.672;23.334;2022-12-07T10:58:52;942.5;;;8.9;73.0
69916;BME280;57203;42.672;23.334;2022-12-07T10:59:53;942.4;;;9.0;72.9
69916;BME280;57203;42.672;23.334;2022-12-07T11:00:50;942.4;;;9.1;72.4
69916;BME280;57203;42.672;23.334;2022-12-07T11:02:53;942.3;;;9.0;71.9
69916;BME280;57203;42.672;23.334;2022-12-07T11:04:53;942.3;;;9.1;72.3
69916;BME280;57203;42.672;23.334;2022-12-07T11:05:49;942.2;;;9.2;72.0
69916;BME280;57203;42.672;23.334;2022-12-07T11:06:50;942.2;;;9.1;71.7
69916;BME280;57203;42.672;23.334;2022-12-07T11:08:54;942.2;;;9.2;72.2
69916;BME280;57203;42.672;23.334;2022-12-07T11:10:51;942.2;;;9.3;71.7
69916;BME280;57203;42.672;23.334;2022-12-07T11:11:50;942.2;;;9.4;71.7
69916;BME280;57203;42.672;23.334;2022-12-07T11:12:54;942.2;;;9.2;71.2
69916;BME280;57203;42.672;23.334;2022-12-07T11:15:53;942.2;;;9.4;71.7
69916;BME280;57203;42.672;23.334;2022-12-07T11:17:52;942.2;;;9.5;70.8
69916;BME280;57203;42.672;23.334;2022-12-07T11:18:52;942.2;;;9.4;70.7
69916;BME280;57203;42.672;23.334;2022-12-07T11:19:52;942.2;;;9.3;70.8
69916;BME280;57203;42.672;23.334;2022-12-07T11:21:51;942.2;;;9.4;71.6
69916;BME280;57203;42.672;23.334;2022-12-07T11:24:50;942.1;;;9.6;71.1
69916;BME280;57203;42.672;23.334;2022-12-07T11:25:50;942.1;;;9.7;70.5
69916;BME280;57203;42.672;23.334;2022-12-07T11:28:57;942.1;;;9.8;70.0
69916;BME280;57203;42.672;23.334;2022-12-07T11:30:51;942.0;;;9.9;69.8
69916;BME280;57203;42.672;23.334;2022-12-07T11:31:52;942.0;;;9.8;69.7
69916;BME280;57203;42.672;23.334;2022-12-07T11:32:52;942.0;;;9.7;69.8
69916;BME280;57203;42.672;23.334;2022-12-07T11:33:50;941.9;;;9.6;70.3
69916;BME280;57203;42.672;23.334;2022-12-07T11:35:52;941.9;;;9.5;70.6
69916;BME280;57203;42.672;23.334;2022-12-07T11:36:50;941.9;;;9.4;70.6
69916;BME280;57203;42.672;23.334;2022-12-07T11:38:50;941.8;;;9.3;70.8
69916;BME280;57203;42.672;23.334;2022-12-07T11:39:49;941.8;;;9.2;70.7
69916;BME280;57203;42.672;23.334;2022-12-07T11:40:49;941.8;;;9.3;71.2
69916;BME280;57203;42.672;23.334;2022-12-07T11:41:50;941.8;;;9.5;71.0